Terminal Aerodrome Forecast
Issued by NWS

Home | Current Version | Previous Version | Graphics & Text | Print | Product List | Glossary On
Versions: 1 2 3 4 5 6 7 8 9 10 11 12 13 14 15 16 17 18 19 20
000
FTUS43 KBIS 231335 AAA
TAFMOT
TAF AMD
KMOT 231335Z 2314/2412 29010KT P6SM VCSH BKN005
     FM231500 30016G24KT P6SM FEW009 SCT180
     FM231700 28015G23KT P6SM SCT120
     FM240200 26010KT P6SM SCT050=

USA.gov is the U.S. government's official web portal to all federal, state and local government web resources and services.